Time;durP1;ratioP1;P1;durP2;ratioP2;P2;SDS_P1;SDS_P2;PMS_P1;PMS_P2;Temp;Humidity;BMP_temperature;BMP_pressure;BME280_temperature;BME280_humidity;BME280_pressure;Samples;Min_cycle;Max_cycle;Signal;HPM_P1;HPM_P2
2023/08/01 00:01:38;;;;;;;1.67;0.70;;;;;;;17.33;57.43;99524.34;5108968;27;20104;-74
2023/08/01 00:04:08;;;;;;;1.48;0.68;;;;;;;17.34;57.59;99530.72;5105597;28;20097;-74
2023/08/01 00:06:36;;;;;;;2.80;0.77;;;;;;;17.32;57.72;99525.41;5088934;28;20071;-74
2023/08/01 00:09:04;;;;;;;1.40;0.52;;;;;;;17.32;57.66;99521.78;5085862;28;20036;-74
2023/08/01 00:11:31;;;;;;;1.55;0.68;;;;;;;17.31;57.60;99507.13;5106660;28;20054;-74
2023/08/01 00:13:59;;;;;;;1.55;0.80;;;;;;;17.30;57.39;99510.97;5107066;28;20040;-74
2023/08/01 00:16:27;;;;;;;1.60;0.73;;;;;;;17.29;57.67;99514.78;5105590;28;20070;-74
2023/08/01 00:18:55;;;;;;;1.13;0.60;;;;;;;17.30;57.62;99510.09;5101342;28;20092;-74
2023/08/01 00:21:25;;;;;;;1.50;0.70;;;;;;;17.31;57.50;99495.22;5109609;28;20043;-74
2023/08/01 00:23:52;;;;;;;1.50;0.70;;;;;;;17.28;57.62;99463.31;5104388;28;20633;-74
2023/08/01 00:26:20;;;;;;;1.00;0.60;;;;;;;17.28;58.06;99474.38;5086716;28;20089;-74
2023/08/01 00:28:48;;;;;;;1.10;0.73;;;;;;;17.27;58.00;99435.88;5108148;27;20452;-74
2023/08/01 00:31:16;;;;;;;1.45;0.60;;;;;;;17.27;58.11;99480.97;5086247;28;20063;-74
2023/08/01 00:33:44;;;;;;;1.05;0.60;;;;;;;17.27;57.90;99477.34;5110167;28;20039;-74
2023/08/01 00:36:12;;;;;;;1.38;0.50;;;;;;;17.25;57.83;99477.53;5083922;28;20040;-74
2023/08/01 00:38:43;;;;;;;1.45;0.50;;;;;;;17.27;57.72;99478.19;5108573;28;20455;-75
2023/08/01 00:41:10;;;;;;;0.95;0.38;;;;;;;17.25;58.21;99476.69;5102519;28;20052;-74
2023/08/01 00:43:38;;;;;;;0.82;0.50;;;;;;;17.25;57.93;99485.84;5086185;28;20135;-74
2023/08/01 00:46:07;;;;;;;1.48;0.60;;;;;;;17.26;57.77;99467.34;5090922;28;20127;-74
2023/08/01 00:48:36;;;;;;;1.23;0.55;;;;;;;17.25;58.08;99436.06;5090879;28;20410;-75
2023/08/01 00:51:06;;;;;;;1.65;0.45;;;;;;;17.25;58.16;99436.06;5087983;28;20081;-74
2023/08/01 00:53:35;;;;;;;1.15;0.35;;;;;;;17.22;58.01;99450.34;5105737;28;20047;-74
2023/08/01 00:56:05;;;;;;;0.40;0.40;;;;;;;17.24;57.74;99474.97;5087039;28;20122;-74
2023/08/01 00:58:33;;;;;;;0.70;0.40;;;;;;;17.21;58.20;99481.81;5104810;28;20047;-75
2023/08/01 01:01:03;;;;;;;1.05;0.30;;;;;;;17.20;57.74;99465.44;5085014;28;20091;-74
2023/08/01 01:03:32;;;;;;;0.95;0.40;;;;;;;17.18;57.69;99460.09;5104565;28;20035;-74
2023/08/01 01:06:07;;;;;;;0.95;0.40;;;;;;;17.20;58.05;99462.66;5108489;27;20048;-75
2023/08/01 01:08:35;;;;;;;0.65;0.30;;;;;;;17.16;58.04;99444.78;5102381;28;20043;-75
2023/08/01 01:11:05;;;;;;;0.40;0.20;;;;;;;17.17;58.34;99458.41;5086823;28;20127;-75
2023/08/01 01:13:33;;;;;;;0.20;0.20;;;;;;;17.15;58.37;99468.84;5086869;28;20230;-75
2023/08/01 01:16:01;;;;;;;0.60;0.20;;;;;;;17.15;58.53;99463.31;5104841;28;20039;-74
2023/08/01 01:18:29;;;;;;;0.32;0.20;;;;;;;17.14;58.23;99461.59;5086100;28;20036;-75
2023/08/01 01:20:59;;;;;;;1.08;0.22;;;;;;;17.16;57.95;99461.38;5089792;28;20139;-74
2023/08/01 01:23:28;;;;;;;0.88;0.20;;;;;;;17.15;58.16;99459.69;5086130;28;20044;-74
2023/08/01 01:25:58;;;;;;;1.55;0.40;;;;;;;17.15;58.39;99451.41;5088924;28;20128;-74
2023/08/01 01:28:27;;;;;;;0.50;0.20;;;;;;;17.12;58.45;99438.84;5104976;28;20043;-75
2023/08/01 01:30:56;;;;;;;1.17;0.20;;;;;;;17.11;58.06;99434.38;5098339;28;20039;-74
2023/08/01 01:33:24;;;;;;;0.80;0.30;;;;;;;17.10;58.46;99435.44;5105560;28;20046;-75
2023/08/01 01:35:52;;;;;;;0.75;0.40;;;;;;;17.08;57.87;99423.72;5103378;28;20124;-74
2023/08/01 01:38:22;;;;;;;0.43;0.22;;;;;;;17.10;57.94;99418.00;5106749;28;20137;-75
2023/08/01 01:40:50;;;;;;;1.45;0.30;;;;;;;17.08;58.02;99415.44;5088738;28;20176;-74
2023/08/01 01:43:18;;;;;;;0.60;0.30;;;;;;;17.08;58.16;99420.09;5105985;28;20043;-74
2023/08/01 01:45:46;;;;;;;1.08;0.25;;;;;;;17.08;58.47;99420.97;5082289;28;20381;-74
2023/08/01 01:48:14;;;;;;;0.20;0.20;;;;;;;17.07;58.42;99411.00;5091543;22;20413;-74
2023/08/01 01:50:42;;;;;;;0.10;0.10;;;;;;;17.07;58.30;99412.91;5073648;28;20507;-74
2023/08/01 01:53:10;;;;;;;0.80;0.35;;;;;;;17.06;58.41;99420.34;5059459;28;20064;-74
2023/08/01 01:55:39;;;;;;;1.58;0.30;;;;;;;17.09;58.26;99424.56;5035915;28;20063;-74
2023/08/01 01:58:07;;;;;;;0.85;0.30;;;;;;;17.06;58.37;99423.09;5032168;28;20040;-74
2023/08/01 02:00:35;;;;;;;0.98;0.30;;;;;;;17.06;58.15;99422.25;5030573;28;20076;-73
2023/08/01 02:03:03;;;;;;;0.50;0.30;;;;;;;17.06;58.33;99417.56;5053087;28;20411;-74
2023/08/01 02:05:31;;;;;;;0.40;0.30;;;;;;;17.06;58.47;99425.03;5037402;28;20036;-73
2023/08/01 02:07:59;;;;;;;1.35;0.50;;;;;;;17.05;58.46;99424.16;5056734;28;20045;-74
2023/08/01 02:10:27;;;;;;;1.05;0.40;;;;;;;17.04;58.03;99422.47;5033505;28;20119;-73
2023/08/01 02:12:57;;;;;;;0.38;0.38;;;;;;;17.07;58.36;99413.75;5050032;28;20124;-74
2023/08/01 02:15:25;;;;;;;0.57;0.40;;;;;;;17.04;58.46;99400.34;5033276;28;20377;-74
2023/08/01 02:17:53;;;;;;;0.82;0.50;;;;;;;17.04;58.51;99403.09;5051886;28;20136;-74
2023/08/01 02:20:21;;;;;;;0.60;0.40;;;;;;;17.02;58.08;99406.09;5036666;28;20048;-73
2023/08/01 02:22:49;;;;;;;1.50;0.57;;;;;;;17.04;58.26;99403.09;5057929;28;20052;-74
2023/08/01 02:25:17;;;;;;;1.00;0.65;;;;;;;17.04;58.07;99416.06;5033626;28;20045;-74
2023/08/01 02:27:45;;;;;;;1.13;0.70;;;;;;;17.03;57.83;99415.22;5037475;28;20069;-74
2023/08/01 02:30:14;;;;;;;0.80;0.60;;;;;;;17.05;57.62;99412.25;5031087;28;20201;-74
2023/08/01 02:32:43;;;;;;;1.48;0.80;;;;;;;17.01;58.18;99411.81;5039164;28;20049;-74
2023/08/01 02:35:12;;;;;;;1.23;0.90;;;;;;;17.01;58.15;99411.81;5056986;28;20048;-74
2023/08/01 02:37:40;;;;;;;1.50;1.02;;;;;;;17.00;58.14;99410.09;5056168;28;20040;-74
2023/08/01 02:40:10;;;;;;;2.22;1.35;;;;;;;17.00;57.70;99422.00;5052555;28;20114;-74
2023/08/01 02:42:38;;;;;;;2.67;1.63;;;;;;;16.97;57.82;99416.94;5053553;28;20059;-73
2023/08/01 02:45:06;;;;;;;2.20;1.23;;;;;;;16.98;57.85;99421.41;5034660;28;20037;-73
2023/08/01 02:47:36;;;;;;;2.83;1.40;;;;;;;16.99;57.91;99433.28;5058869;28;20048;-72
2023/08/01 02:50:05;;;;;;;3.50;1.50;;;;;;;16.97;57.51;99421.59;5053407;28;20041;-72
2023/08/01 02:52:33;;;;;;;2.72;1.40;;;;;;;16.95;57.59;99423.69;5032708;28;20060;-74
2023/08/01 02:55:00;;;;;;;2.47;1.40;;;;;;;16.95;57.85;99430.06;5033282;28;20056;-75
2023/08/01 02:57:28;;;;;;;3.40;2.00;;;;;;;16.95;57.67;99430.06;5048165;28;20040;-74
2023/08/01 02:59:56;;;;;;;3.33;1.65;;;;;;;16.95;57.60;99429.22;5031241;28;20087;-74
2023/08/01 03:02:24;;;;;;;3.22;1.90;;;;;;;16.95;58.04;99432.84;5055722;28;20726;-74
2023/08/01 03:04:55;;;;;;;2.58;1.83;;;;;;;16.96;57.60;99437.31;5047228;28;20040;-74
2023/08/01 03:07:23;;;;;;;2.83;2.00;;;;;;;16.94;57.76;99430.28;5050866;28;20095;-73
2023/08/01 03:09:52;;;;;;;2.67;1.83;;;;;;;16.93;57.95;99436.84;5031506;28;20048;-73
2023/08/01 03:12:20;;;;;;;4.07;2.20;;;;;;;16.94;57.67;99444.09;5031181;28;20433;-73
2023/08/01 03:14:48;;;;;;;3.50;2.13;;;;;;;16.93;57.97;99442.38;5054737;28;20141;-73
2023/08/01 03:17:16;;;;;;;2.63;1.77;;;;;;;16.93;57.89;99447.91;5027686;28;20072;-74
2023/08/01 03:19:44;;;;;;;3.70;2.13;;;;;;;16.93;58.17;99448.75;5032816;28;20228;-74
2023/08/01 03:22:13;;;;;;;3.95;2.58;;;;;;;16.94;57.79;99456.00;5050771;28;20048;-73
2023/08/01 03:24:41;;;;;;;4.78;2.65;;;;;;;16.92;57.57;99455.34;5033701;28;20543;-74
2023/08/01 03:27:09;;;;;;;3.63;2.50;;;;;;;16.92;57.34;99465.53;5056310;28;20539;-74
2023/08/01 03:29:38;;;;;;;4.43;2.40;;;;;;;16.91;57.36;99474.91;5044470;28;20062;-74
2023/08/01 03:32:06;;;;;;;4.75;2.80;;;;;;;16.90;57.27;99468.53;5039214;28;20053;-74
2023/08/01 03:34:34;;;;;;;4.63;2.70;;;;;;;16.90;56.71;99479.59;5033934;28;20128;-74
2023/08/01 03:37:02;;;;;;;4.85;3.08;;;;;;;16.88;56.68;99483.63;5056164;28;20499;-73
2023/08/01 03:39:31;;;;;;;5.47;3.15;;;;;;;16.87;56.46;99490.22;5038219;28;20127;-74
2023/08/01 03:41:59;;;;;;;5.75;3.25;;;;;;;16.82;56.35;99493.59;5059937;28;20045;-74
2023/08/01 03:44:27;;;;;;;6.55;3.10;;;;;;;16.80;56.48;99481.06;5039814;28;20044;-73
2023/08/01 03:46:55;;;;;;;4.45;3.20;;;;;;;16.77;56.20;99486.97;5049554;28;20080;-74
2023/08/01 03:49:23;;;;;;;5.18;3.15;;;;;;;16.75;56.33;99489.94;5033732;28;20087;-73
2023/08/01 03:51:51;;;;;;;5.80;3.45;;;;;;;16.72;56.19;99495.91;5041583;28;20041;-74
2023/08/01 03:54:18;;;;;;;4.82;3.17;;;;;;;16.70;56.24;99498.03;5051861;28;20102;-73
2023/08/01 03:56:49;;;;;;;5.05;3.20;;;;;;;16.69;56.59;99496.31;5032368;28;20092;-73
2023/08/01 03:59:17;;;;;;;6.25;3.25;;;;;;;16.66;56.27;99498.66;5037351;28;20493;-73
2023/08/01 04:01:46;;;;;;;6.47;3.53;;;;;;;16.64;56.08;99498.84;5044980;28;20067;-73
2023/08/01 04:04:14;;;;;;;5.30;3.35;;;;;;;16.62;56.09;99504.59;5047268;28;20061;-74
2023/08/01 04:06:41;;;;;;;5.88;4.00;;;;;;;16.60;56.19;99503.06;5054031;28;20044;-74
2023/08/01 04:09:10;;;;;;;6.13;3.67;;;;;;;16.58;56.44;99500.50;5039792;28;20053;-73
2023/08/01 04:11:38;;;;;;;4.50;3.28;;;;;;;16.57;56.03;99501.59;5049810;28;20048;-73
2023/08/01 04:14:08;;;;;;;5.40;3.47;;;;;;;16.58;55.89;99500.50;5034932;28;20124;-73
2023/08/01 04:16:36;;;;;;;5.57;4.35;;;;;;;16.56;56.21;99507.31;5046961;28;20048;-73
2023/08/01 04:19:03;;;;;;;5.88;3.80;;;;;;;16.55;56.18;99517.50;5057170;28;20049;-73
2023/08/01 04:21:31;;;;;;;6.07;4.35;;;;;;;16.55;56.10;99513.91;5046442;28;20123;-73
2023/08/01 04:23:59;;;;;;;6.57;4.40;;;;;;;16.53;56.23;99505.81;5053068;28;20501;-73
2023/08/01 04:26:27;;;;;;;6.25;4.20;;;;;;;16.51;55.84;99499.63;5036838;28;20057;-73
2023/08/01 04:28:55;;;;;;;8.30;4.50;;;;;;;16.51;56.05;99502.41;5035464;28;20731;-73
2023/08/01 04:31:24;;;;;;;5.97;4.22;;;;;;;16.52;56.10;99506.88;5039159;28;20553;-73
2023/08/01 04:33:52;;;;;;;8.43;5.00;;;;;;;16.50;56.28;99508.13;5055307;28;20040;-73
2023/08/01 04:36:20;;;;;;;8.63;5.35;;;;;;;16.50;56.05;99519.16;5047553;28;20068;-72
2023/08/01 04:38:48;;;;;;;8.10;5.28;;;;;;;16.48;55.78;99511.13;5035551;28;20135;-73
2023/08/01 04:41:16;;;;;;;6.70;4.80;;;;;;;16.48;55.91;99505.59;5052952;28;20543;-73
2023/08/01 04:43:44;;;;;;;7.38;5.28;;;;;;;16.48;56.02;99505.59;5052613;28;20045;-73
2023/08/01 04:46:11;;;;;;;8.82;5.65;;;;;;;16.46;55.67;99504.94;5034154;28;20136;-72
2023/08/01 04:48:43;;;;;;;7.53;5.28;;;;;;;16.48;56.00;99500.06;5050007;28;20056;-73
2023/08/01 04:51:11;;;;;;;7.28;4.88;;;;;;;16.46;55.84;99509.59;5054075;28;20036;-73
2023/08/01 04:53:39;;;;;;;6.90;5.05;;;;;;;16.46;55.78;99512.38;5052950;28;20131;-73
2023/08/01 04:56:07;;;;;;;8.05;5.57;;;;;;;16.44;55.53;99518.09;5029845;28;20128;-73
2023/08/01 04:58:34;;;;;;;7.30;5.18;;;;;;;16.44;55.73;99512.56;5034297;28;20197;-73
2023/08/01 05:01:02;;;;;;;7.22;5.35;;;;;;;16.43;55.62;99510.84;5049235;28;20041;-73
2023/08/01 05:03:30;;;;;;;7.43;5.07;;;;;;;16.43;55.45;99521.06;5027814;28;20045;-73
2023/08/01 05:06:00;;;;;;;8.40;5.57;;;;;;;16.45;55.61;99527.22;5049862;28;20064;-73
2023/08/01 05:08:27;;;;;;;7.38;4.78;;;;;;;16.42;55.74;99520.19;5028675;28;20068;-73
2023/08/01 05:10:55;;;;;;;8.32;4.75;;;;;;;16.41;55.81;99517.66;5031807;28;20463;-72
2023/08/01 05:13:24;;;;;;;7.30;4.93;;;;;;;16.41;55.64;99518.53;5052843;28;20133;-73
2023/08/01 05:15:52;;;;;;;8.73;4.75;;;;;;;16.41;55.50;99528.72;5049500;28;20552;-72
2023/08/01 05:18:20;;;;;;;7.35;4.70;;;;;;;16.40;55.70;99530.63;5049589;28;20118;-72
2023/08/01 05:20:47;;;;;;;6.40;4.82;;;;;;;16.40;55.83;99544.44;5034259;28;20086;-72
2023/08/01 05:23:17;;;;;;;6.72;4.55;;;;;;;16.42;55.63;99542.28;5061164;28;20127;-73
2023/08/01 05:25:45;;;;;;;6.95;4.78;;;;;;;16.40;55.28;99544.44;5030001;28;20139;-73
2023/08/01 05:28:12;;;;;;;6.70;4.57;;;;;;;16.40;55.24;99549.09;5050087;28;20072;-72
2023/08/01 05:30:41;;;;;;;6.63;4.32;;;;;;;16.40;55.19;99546.34;5028126;28;20064;-72
2023/08/01 05:33:09;;;;;;;6.68;4.47;;;;;;;16.39;55.46;99545.47;5050841;28;20128;-72
2023/08/01 05:35:37;;;;;;;8.20;4.25;;;;;;;16.38;55.69;99543.78;5046485;28;20053;-72
2023/08/01 05:38:05;;;;;;;6.32;3.95;;;;;;;16.39;55.63;99555.66;5047827;28;20055;-72
2023/08/01 05:40:34;;;;;;;6.25;4.10;;;;;;;16.40;55.49;99554.63;5029909;28;20076;-72
2023/08/01 05:43:04;;;;;;;6.18;4.03;;;;;;;16.38;55.49;99554.81;5050169;28;20047;-73
2023/08/01 05:45:31;;;;;;;7.03;3.95;;;;;;;16.39;55.31;99552.91;5050360;28;20139;-73
2023/08/01 05:47:59;;;;;;;7.07;4.53;;;;;;;16.39;55.57;99561.19;5035206;28;20056;-72
2023/08/01 05:50:27;;;;;;;6.22;3.75;;;;;;;16.38;55.44;99565.00;5051195;28;20037;-73
2023/08/01 05:52:55;;;;;;;7.10;4.20;;;;;;;16.38;55.23;99565.00;5040893;28;20713;-72
2023/08/01 05:55:23;;;;;;;7.55;4.13;;;;;;;16.38;55.54;99565.84;5044312;28;20065;-72
2023/08/01 05:57:52;;;;;;;5.78;3.63;;;;;;;16.39;55.03;99572.22;5035784;28;20078;-72
2023/08/01 06:00:21;;;;;;;6.72;3.85;;;;;;;16.38;55.53;99570.53;5049278;28;20049;-72
2023/08/01 06:02:49;;;;;;;8.10;4.63;;;;;;;16.38;55.07;99567.75;5062415;28;20521;-72
2023/08/01 06:05:17;;;;;;;5.88;3.60;;;;;;;16.37;55.07;99566.91;5047244;28;20061;-72
2023/08/01 06:07:45;;;;;;;7.93;4.07;;;;;;;16.36;55.24;99570.72;5053686;28;20060;-72
2023/08/01 06:10:13;;;;;;;5.97;3.30;;;;;;;16.36;55.64;99573.47;5047970;28;20041;-72
2023/08/01 06:12:41;;;;;;;6.60;3.58;;;;;;;16.36;55.76;99565.19;5049012;28;20044;-72
2023/08/01 06:15:11;;;;;;;6.38;3.70;;;;;;;16.39;55.18;99569.47;5043462;28;20063;-72
2023/08/01 06:17:39;;;;;;;5.85;3.72;;;;;;;16.36;55.27;99570.72;5051425;28;20049;-71
2023/08/01 06:20:08;;;;;;;6.85;3.58;;;;;;;16.38;55.39;99573.28;5036176;28;20110;-72
2023/08/01 06:22:36;;;;;;;5.65;3.28;;;;;;;16.38;55.23;99576.91;5046068;28;20044;-72
2023/08/01 06:25:04;;;;;;;5.80;3.33;;;;;;;16.40;55.70;99566.50;5051677;28;20097;-73
2023/08/01 06:27:32;;;;;;;5.22;3.33;;;;;;;16.40;55.51;99565.66;5053560;28;20041;-72
2023/08/01 06:30:00;;;;;;;6.35;3.63;;;;;;;16.43;55.79;99579.03;5050917;28;20044;-72
2023/08/01 06:32:30;;;;;;;5.55;3.28;;;;;;;16.47;55.56;99578.44;5052926;28;20056;-71
2023/08/01 06:34:58;;;;;;;5.32;3.30;;;;;;;16.47;55.47;99572.94;5048500;28;20037;-71
2023/08/01 06:37:25;;;;;;;6.32;3.35;;;;;;;16.50;55.98;99578.00;5048708;28;20147;-71
2023/08/01 06:39:55;;;;;;;5.68;3.17;;;;;;;16.55;55.89;99585.72;5046474;28;20499;-71
2023/08/01 06:42:23;;;;;;;6.05;3.60;;;;;;;16.56;55.72;99591.03;5051526;28;20129;-72
2023/08/01 06:44:51;;;;;;;6.60;3.40;;;;;;;16.60;56.06;99586.78;5049273;28;20676;-71
2023/08/01 06:47:19;;;;;;;6.20;3.28;;;;;;;16.64;55.85;99579.81;5051272;28;20120;-71
2023/08/01 06:49:48;;;;;;;5.75;3.40;;;;;;;16.71;55.66;99573.47;5030080;28;20124;-71
2023/08/01 06:52:16;;;;;;;5.78;3.20;;;;;;;16.73;55.93;99585.16;5048633;28;20044;-71
2023/08/01 06:54:44;;;;;;;6.40;3.58;;;;;;;16.77;55.24;99584.53;5048496;28;20067;-71
2023/08/01 06:57:12;;;;;;;7.32;3.33;;;;;;;16.80;55.19;99583.28;5049780;28;20110;-71
2023/08/01 06:59:40;;;;;;;5.40;3.00;;;;;;;16.83;54.96;99571.81;5029807;28;20122;-70
2023/08/01 07:02:08;;;;;;;6.10;3.08;;;;;;;16.85;55.40;99572.44;5037779;28;20044;-70
2023/08/01 07:04:37;;;;;;;6.45;3.80;;;;;;;16.87;54.63;99575.88;5029063;28;20064;-70
2023/08/01 07:07:08;;;;;;;8.00;3.90;;;;;;;16.91;54.57;99586.28;5050006;28;20449;-70
2023/08/01 07:09:36;;;;;;;7.05;3.80;;;;;;;16.90;54.59;99581.84;5054626;28;20045;-70
2023/08/01 07:12:05;;;;;;;7.22;3.45;;;;;;;16.91;54.44;99591.81;5051058;28;20362;-70
2023/08/01 07:14:33;;;;;;;6.82;3.65;;;;;;;16.91;54.43;99590.97;5034984;28;20519;-70
2023/08/01 07:17:01;;;;;;;5.00;3.35;;;;;;;16.92;54.43;99595.44;5054890;28;20069;-70
2023/08/01 07:19:29;;;;;;;5.78;3.55;;;;;;;16.93;54.21;99598.00;5049479;28;20041;-70
2023/08/01 07:21:57;;;;;;;6.00;3.45;;;;;;;16.93;54.75;99589.72;5038351;28;20131;-70
2023/08/01 07:24:27;;;;;;;6.63;3.72;;;;;;;16.95;54.26;99598.66;5053803;28;20052;-70
2023/08/01 07:26:56;;;;;;;7.47;3.88;;;;;;;16.95;54.38;99597.81;5048573;28;20044;-70
2023/08/01 07:29:24;;;;;;;5.68;3.70;;;;;;;16.96;53.96;99603.13;5033218;28;20275;-71
2023/08/01 07:31:52;;;;;;;6.32;3.85;;;;;;;16.96;54.60;99596.75;5047537;28;20353;-70
2023/08/01 07:34:20;;;;;;;5.28;3.83;;;;;;;16.97;54.21;99595.72;5050062;28;20041;-70
2023/08/01 07:36:51;;;;;;;6.68;3.65;;;;;;;16.99;54.40;99601.88;5046835;28;20680;-70
2023/08/01 07:39:18;;;;;;;6.55;3.90;;;;;;;16.99;53.78;99602.72;5028300;28;20167;-70
2023/08/01 07:41:48;;;;;;;6.55;3.33;;;;;;;17.01;53.74;99600.63;5056060;28;20037;-70
2023/08/01 07:44:16;;;;;;;6.63;3.67;;;;;;;17.00;53.83;99611.88;5034038;28;20037;-70
2023/08/01 07:46:43;;;;;;;7.97;3.92;;;;;;;17.01;53.76;99611.66;5053020;28;20687;-71
2023/08/01 07:49:11;;;;;;;6.90;4.13;;;;;;;17.03;53.73;99608.72;5047161;28;20176;-70
2023/08/01 07:51:39;;;;;;;6.70;3.70;;;;;;;17.05;53.82;99608.50;5048577;28;20051;-70
2023/08/01 07:54:07;;;;;;;7.32;3.85;;;;;;;17.06;53.55;99612.97;5042309;28;20045;-71
2023/08/01 07:56:35;;;;;;;5.68;3.88;;;;;;;17.06;53.44;99613.84;5046006;28;20113;-69
2023/08/01 07:59:04;;;;;;;6.82;3.50;;;;;;;17.08;53.52;99606.16;5032512;28;20041;-70
2023/08/01 08:01:32;;;;;;;6.40;3.65;;;;;;;17.08;53.37;99613.59;5041794;28;20461;-69
2023/08/01 08:04:00;;;;;;;5.28;3.33;;;;;;;17.08;53.26;99614.44;5049662;28;20357;-70
2023/08/01 08:06:31;;;;;;;5.32;3.65;;;;;;;17.10;53.57;99619.78;5053978;28;20032;-70
2023/08/01 08:08:58;;;;;;;6.95;3.50;;;;;;;17.11;53.74;99616.81;5050303;28;20507;-70
2023/08/01 08:11:26;;;;;;;6.68;3.30;;;;;;;17.13;54.05;99614.72;5046000;28;20059;-70
2023/08/01 08:13:54;;;;;;;6.65;3.63;;;;;;;17.17;53.73;99612.34;5030081;28;20041;-70
2023/08/01 08:16:23;;;;;;;6.45;3.63;;;;;;;17.21;53.78;99621.97;5026912;28;20632;-70
2023/08/01 08:18:52;;;;;;;5.93;3.30;;;;;;;17.23;53.57;99626.22;5050259;28;20052;-70
2023/08/01 08:21:20;;;;;;;5.10;3.53;;;;;;;17.26;53.42;99622.19;5047689;28;20048;-70
2023/08/01 08:23:48;;;;;;;6.95;3.30;;;;;;;17.27;53.30;99630.28;5052427;28;20040;-71
2023/08/01 08:26:16;;;;;;;5.75;3.15;;;;;;;17.30;53.13;99623.47;5048421;28;20744;-71
2023/08/01 08:28:44;;;;;;;6.78;3.00;;;;;;;17.31;52.55;99631.56;5047333;28;20076;-71
2023/08/01 08:31:12;;;;;;;5.70;3.20;;;;;;;17.32;52.28;99632.41;5048857;28;20041;-70
2023/08/01 08:33:41;;;;;;;5.90;3.08;;;;;;;17.36;52.39;99628.16;5045767;28;20114;-71
2023/08/01 08:36:09;;;;;;;5.38;3.47;;;;;;;17.34;52.76;99631.13;5047010;28;20055;-70
2023/08/01 08:38:37;;;;;;;6.53;3.70;;;;;;;17.39;53.01;99627.78;5047296;28;20110;-70
2023/08/01 08:41:09;;;;;;;8.98;3.38;;;;;;;17.45;52.89;99629.69;5046469;28;20538;-70
2023/08/01 08:43:37;;;;;;;;;;;;;;;17.18;53.18;99637.03;5032973;28;21246;-70
2023/08/01 08:46:06;;;;;;;6.28;2.83;;;;;;;17.47;53.07;99627.56;5045620;28;20010;-70
2023/08/01 08:48:35;;;;;;;6.80;3.03;;;;;;;17.54;52.61;99635.88;5047065;28;20067;-70
2023/08/01 08:51:04;;;;;;;5.78;3.22;;;;;;;17.60;52.58;99630.34;5031360;28;20033;-70
2023/08/01 08:53:32;;;;;;;6.70;2.88;;;;;;;17.63;52.85;99634.63;5027066;28;20140;-70
2023/08/01 08:56:02;;;;;;;6.00;3.25;;;;;;;17.67;52.51;99631.22;5047950;28;20177;-70
2023/08/01 08:58:31;;;;;;;6.40;3.20;;;;;;;17.71;52.50;99638.06;5046655;28;20440;-70
2023/08/01 09:01:01;;;;;;;4.18;2.80;;;;;;;17.76;52.27;99640.22;5045825;28;20546;-70
2023/08/01 09:03:29;;;;;;;5.97;3.08;;;;;;;17.79;51.86;99625.97;5026060;28;20041;-70
2023/08/01 09:06:03;;;;;;;5.38;2.80;;;;;;;17.85;51.55;99640.84;5025431;28;20058;-70
2023/08/01 09:08:36;;;;;;;7.10;3.20;;;;;;;17.87;52.10;99642.34;5046815;28;20404;-70
2023/08/01 09:11:05;;;;;;;4.85;2.67;;;;;;;17.89;52.41;99642.16;5048363;28;20052;-70
2023/08/01 09:13:33;;;;;;;6.32;2.97;;;;;;;17.94;52.30;99634.91;5044051;28;20094;-70
2023/08/01 09:16:03;;;;;;;5.00;2.70;;;;;;;18.01;52.06;99640.44;5043272;28;20056;-70
2023/08/01 09:18:30;;;;;;;5.68;2.78;;;;;;;18.07;52.35;99642.34;5044963;28;20063;-70
2023/08/01 09:21:02;;;;;;;7.05;3.13;;;;;;;18.15;52.27;99636.59;5048547;28;20054;-70
2023/08/01 09:23:31;;;;;;;5.27;3.20;;;;;;;18.22;52.13;99644.94;5026908;28;20147;-70
2023/08/01 09:26:00;;;;;;;5.03;3.00;;;;;;;18.33;51.63;99641.50;5047701;28;20167;-70
2023/08/01 09:28:28;;;;;;;4.63;2.90;;;;;;;18.39;51.08;99646.19;5034356;28;20099;-70
2023/08/01 09:30:57;;;;;;;6.50;3.15;;;;;;;18.45;50.93;99645.34;5032619;28;20125;-70
2023/08/01 09:33:26;;;;;;;6.70;3.08;;;;;;;18.49;50.84;99644.72;5035679;28;20163;-70
2023/08/01 09:35:54;;;;;;;5.32;3.08;;;;;;;18.54;50.98;99641.31;5042014;28;20051;-70
2023/08/01 09:38:23;;;;;;;4.18;2.60;;;;;;;18.59;51.17;99644.28;5059231;28;20040;-66
2023/08/01 09:40:51;;;;;;;6.13;3.10;;;;;;;18.65;50.99;99639.78;5053678;28;20037;-68
2023/08/01 09:43:20;;;;;;;5.95;3.15;;;;;;;18.74;50.74;99647.63;5029436;28;20530;-65
2023/08/01 09:45:52;;;;;;;4.47;2.75;;;;;;;18.83;50.32;99634.41;5054385;28;20049;-64
2023/08/01 09:48:25;;;;;;;6.75;3.08;;;;;;;18.89;49.58;99641.84;5058491;28;20136;-68
2023/08/01 09:51:05;;;;;;;6.05;2.83;;;;;;;18.97;49.76;99633.28;5041947;28;20400;-68
2023/08/01 09:53:33;;;;;;;5.57;2.83;;;;;;;19.03;50.47;99635.19;5048698;28;20045;-67
2023/08/01 09:56:02;;;;;;;4.82;2.50;;;;;;;19.13;50.09;99635.56;5045969;28;20060;-68
2023/08/01 09:58:34;;;;;;;5.55;2.70;;;;;;;19.22;49.04;99645.38;5057212;28;20106;-68
2023/08/01 10:01:02;;;;;;;5.35;2.83;;;;;;;19.24;49.50;99634.91;5055179;28;20316;-68
2023/08/01 10:03:31;;;;;;;5.90;2.80;;;;;;;19.31;48.88;99626.56;5048765;28;20110;-67
2023/08/01 10:06:00;;;;;;;5.03;2.78;;;;;;;19.35;48.74;99641.69;5056818;28;20049;-67
2023/08/01 10:08:32;;;;;;;4.38;2.50;;;;;;;19.40;48.47;99636.31;5050148;28;20041;-68
2023/08/01 10:11:04;;;;;;;4.15;2.67;;;;;;;19.41;48.34;99629.69;5043206;28;20076;-67
2023/08/01 10:13:34;;;;;;;4.72;2.50;;;;;;;19.46;47.99;99640.97;5036288;28;20032;-68
2023/08/01 10:16:02;;;;;;;4.75;2.65;;;;;;;19.47;48.15;99637.13;5043096;28;20057;-68
2023/08/01 10:18:31;;;;;;;4.88;2.42;;;;;;;19.51;48.08;99645.88;5049565;28;20041;-68
2023/08/01 10:21:00;;;;;;;4.63;2.85;;;;;;;19.56;47.96;99646.06;5043142;28;20095;-68
2023/08/01 10:23:29;;;;;;;4.50;2.50;;;;;;;19.59;47.81;99640.91;5047623;28;20408;-68
2023/08/01 10:25:57;;;;;;;6.45;3.17;;;;;;;19.64;47.36;99630.00;5037182;28;20045;-68
2023/08/01 10:28:34;;;;;;;4.18;2.47;;;;;;;19.72;46.24;99639.97;5050587;28;20063;-67
2023/08/01 10:31:12;;;;;;;5.82;2.75;;;;;;;19.75;45.62;99630.34;5044004;28;20102;-69
2023/08/01 10:33:42;;;;;;;4.22;2.45;;;;;;;19.76;46.46;99638.47;5039106;28;20045;-68
2023/08/01 10:36:14;;;;;;;5.53;2.55;;;;;;;19.80;46.13;99633.28;5049112;28;20087;-68
2023/08/01 10:38:47;;;;;;;;;;;;;;;19.51;47.43;99634.78;5052478;28;20037;-66
2023/08/01 10:41:22;;;;;;;4.30;2.15;;;;;;;19.78;45.41;99641.03;5050398;28;19925;-68
2023/08/01 10:43:52;;;;;;;4.40;2.50;;;;;;;19.84;46.18;99645.66;5050811;28;20041;-68
2023/08/01 10:46:19;;;;;;;5.20;2.75;;;;;;;19.83;45.92;99638.41;5045689;28;20572;-68
2023/08/01 10:48:52;;;;;;;5.38;2.67;;;;;;;19.86;45.21;99651.84;5013490;28;1091868;-68
2023/08/01 10:51:20;;;;;;;3.90;2.40;;;;;;;19.81;46.21;99649.75;5052597;28;20052;-68
2023/08/01 10:53:48;;;;;;;4.68;2.47;;;;;;;19.84;45.56;99642.91;5051159;28;20048;-68
2023/08/01 10:56:18;;;;;;;4.50;2.42;;;;;;;19.86;45.61;99646.31;5044139;28;20117;-68
2023/08/01 10:58:47;;;;;;;3.65;2.50;;;;;;;19.85;45.66;99650.16;5055416;28;20197;-68
2023/08/01 11:01:16;;;;;;;4.82;2.25;;;;;;;19.87;45.26;99661.91;5046411;28;20736;-68
2023/08/01 11:03:44;;;;;;;4.75;2.35;;;;;;;19.85;45.08;99651.00;5035726;28;20124;-68
2023/08/01 11:06:12;;;;;;;4.60;2.50;;;;;;;19.86;45.05;99658.25;5060499;28;21078;-68
2023/08/01 11:08:43;;;;;;;5.38;2.78;;;;;;;19.88;45.01;99661.66;5048832;28;20087;-68
2023/08/01 11:11:14;;;;;;;6.13;2.70;;;;;;;19.91;45.33;99664.00;5050745;28;20102;-68
2023/08/01 11:13:51;;;;;;;3.95;2.38;;;;;;;19.96;44.67;99663.31;5044634;28;20105;-68
2023/08/01 11:16:21;;;;;;;4.45;2.45;;;;;;;19.99;45.48;99663.75;5043303;28;20049;-68
2023/08/01 11:18:50;;;;;;;5.03;2.53;;;;;;;20.02;45.61;99657.75;5055078;28;20072;-68
2023/08/01 11:21:27;;;;;;;4.75;2.42;;;;;;;20.12;44.14;99662.78;5031536;28;20056;-68
2023/08/01 11:23:55;;;;;;;5.00;2.50;;;;;;;20.14;45.19;99660.63;5048435;28;20045;-68
2023/08/01 11:26:23;;;;;;;4.15;2.42;;;;;;;20.21;44.65;99657.78;5056486;28;20044;-68
2023/08/01 11:28:52;;;;;;;4.05;2.60;;;;;;;20.24;44.25;99662.91;5057981;28;20037;-68
2023/08/01 11:31:21;;;;;;;5.22;2.65;;;;;;;20.31;43.74;99669.25;5060670;28;20098;-68
2023/08/01 11:33:56;;;;;;;3.63;2.50;;;;;;;20.34;42.78;99678.00;5060156;28;20037;-68
2023/08/01 11:36:28;;;;;;;5.40;2.38;;;;;;;20.35;43.01;99703.88;5053754;28;20681;-67
2023/08/01 11:38:58;;;;;;;3.92;2.30;;;;;;;20.33;43.83;99734.66;5047573;28;20147;-68
2023/08/01 11:41:27;;;;;;;4.05;2.13;;;;;;;20.31;43.66;99756.25;5050013;28;20129;-68